Time;durP1;ratioP1;P1;durP2;ratioP2;P2;SDS_P1;SDS_P2;PMS_P1;PMS_P2;Temp;Humidity;BMP_temperature;BMP_pressure;BME280_temperature;BME280_humidity;BME280_pressure;Samples;Min_cycle;Max_cycle;Signal;HPM_P1;HPM_P2
2023/11/07 00:02:17;;;;;;;13.77;3.30;;;;;;;;;;6211286;23;20483;-91
2023/11/07 00:05:22;;;;;;;9.32;3.05;;;;;;;;;;6211644;23;20166;-91
2023/11/07 00:08:27;;;;;;;11.18;2.90;;;;;;;;;;6214325;23;20155;-92
2023/11/07 00:11:32;;;;;;;6.43;2.80;;;;;;;;;;6213836;23;20155;-92
2023/11/07 00:14:39;;;;;;;7.72;3.00;;;;;;;;;;6212793;23;20198;-92
2023/11/07 00:17:45;;;;;;;9.63;3.35;;;;;;;;;;6213503;23;20226;-94
2023/11/07 00:20:51;;;;;;;8.30;3.35;;;;;;;;;;6214519;23;20180;-92
2023/11/07 00:23:56;;;;;;;8.73;4.00;;;;;;;;;;6214316;23;20175;-93
2023/11/07 00:27:01;;;;;;;8.25;3.85;;;;;;;;;;6214356;23;20214;-91
2023/11/07 00:30:09;;;;;;;10.00;3.42;;;;;;;;;;6213215;23;20164;-92
2023/11/07 00:33:14;;;;;;;6.35;3.08;;;;;;;;;;6213786;22;20186;-91
2023/11/07 00:36:19;;;;;;;7.68;3.13;;;;;;;;;;6214678;22;20611;-91
2023/11/07 00:39:25;;;;;;;5.40;3.08;;;;;;;;;;6214297;23;20509;-92
2023/11/07 00:42:30;;;;;;;10.90;3.30;;;;;;;;;;6213518;22;20179;-92
2023/11/07 00:45:38;;;;;;;10.68;3.42;;;;;;;;;;6213416;23;20162;-92
2023/11/07 00:48:43;;;;;;;7.00;3.00;;;;;;;;;;6213052;23;20167;-93
2023/11/07 00:51:49;;;;;;;6.40;3.10;;;;;;;;;;6214191;22;20224;-91
2023/11/07 00:54:55;;;;;;;10.07;3.30;;;;;;;;;;6214397;23;20178;-92
2023/11/07 00:58:00;;;;;;;10.15;3.33;;;;;;;;;;6213624;23;20255;-93
2023/11/07 01:01:06;;;;;;;5.03;2.92;;;;;;;;;;6214427;23;20215;-93
2023/11/07 01:04:12;;;;;;;7.80;2.97;;;;;;;;;;6213284;23;20170;-93
2023/11/07 01:07:18;;;;;;;9.32;3.50;;;;;;;;;;6213569;23;20170;-92
2023/11/07 01:10:23;;;;;;;11.63;4.22;;;;;;;;;;6214248;23;20174;-91
2023/11/07 01:13:29;;;;;;;7.10;3.47;;;;;;;;;;6215142;23;20167;-94
2023/11/07 01:16:36;;;;;;;8.55;3.80;;;;;;;;;;6213942;23;20171;-92
2023/11/07 01:19:41;;;;;;;9.65;3.60;;;;;;;;;;6212655;23;20250;-92
2023/11/07 01:22:46;;;;;;;6.03;3.05;;;;;;;;;;6212326;23;20218;-92
2023/11/07 01:25:51;;;;;;;6.80;3.28;;;;;;;;;;6212152;23;20171;-90
2023/11/07 01:28:57;;;;;;;9.75;3.42;;;;;;;;;;6212390;23;20171;-92
2023/11/07 01:32:04;;;;;;;6.65;2.95;;;;;;;;;;6208333;23;20186;-91
2023/11/07 01:35:10;;;;;;;6.40;3.45;;;;;;;;;;6212245;23;20650;-95
2023/11/07 01:38:15;;;;;;;8.20;3.30;;;;;;;;;;6212281;23;20253;-94
2023/11/07 01:41:20;;;;;;;10.88;3.90;;;;;;;;;;6212323;23;20171;-90
2023/11/07 01:44:29;;;;;;;7.68;3.60;;;;;;;;;;6211395;23;20678;-91
2023/11/07 01:47:36;;;;;;;8.93;3.33;;;;;;;;;;6212452;23;20175;-93
2023/11/07 01:50:42;;;;;;;5.55;2.95;;;;;;;;;;6212559;23;20187;-94
2023/11/07 01:53:48;;;;;;;7.82;3.08;;;;;;;;;;6211721;23;20175;-92
2023/11/07 01:56:54;;;;;;;6.07;3.13;;;;;;;;;;6211409;23;20259;-91
2023/11/07 02:00:00;;;;;;;7.22;3.20;;;;;;;;;;6211974;23;20160;-91
2023/11/07 02:03:06;;;;;;;6.45;3.38;;;;;;;;;;6210984;22;20171;-92
2023/11/07 02:06:12;;;;;;;6.60;3.15;;;;;;;;;;6212161;23;20584;-92
2023/11/07 02:09:17;;;;;;;7.07;3.13;;;;;;;;;;6209970;23;20168;-91
2023/11/07 02:12:22;;;;;;;9.55;3.03;;;;;;;;;;6209470;23;20360;-93
2023/11/07 02:15:30;;;;;;;6.75;2.78;;;;;;;;;;6211743;22;20195;-90
2023/11/07 02:18:37;;;;;;;5.38;2.60;;;;;;;;;;6211868;23;20183;-93
2023/11/07 02:21:42;;;;;;;5.80;2.83;;;;;;;;;;6212240;23;20159;-91
2023/11/07 02:24:48;;;;;;;6.65;2.95;;;;;;;;;;6213553;23;20176;-93
2023/11/07 02:27:54;;;;;;;7.20;2.85;;;;;;;;;;6213206;23;20159;-92
2023/11/07 02:30:59;;;;;;;5.57;2.38;;;;;;;;;;6212267;23;20175;-92
2023/11/07 02:34:05;;;;;;;6.03;2.72;;;;;;;;;;6212536;23;20167;-91
2023/11/07 02:37:10;;;;;;;6.07;2.58;;;;;;;;;;6211858;23;20166;-91
2023/11/07 02:40:18;;;;;;;7.70;2.85;;;;;;;;;;6212527;23;20171;-91
2023/11/07 02:43:24;;;;;;;5.45;2.45;;;;;;;;;;6211814;23;20167;-93
2023/11/07 02:46:29;;;;;;;6.20;2.50;;;;;;;;;;6213268;23;20167;-92
2023/11/07 02:49:35;;;;;;;9.23;2.65;;;;;;;;;;6214178;22;20219;-91
2023/11/07 02:52:40;;;;;;;4.53;2.60;;;;;;;;;;6215265;22;20163;-92
2023/11/07 02:55:48;;;;;;;7.27;3.03;;;;;;;;;;6213735;23;20190;-90
2023/11/07 02:58:53;;;;;;;7.20;3.00;;;;;;;;;;6214377;23;20642;-92
2023/11/07 03:01:58;;;;;;;5.57;2.92;;;;;;;;;;6213072;23;20585;-92
2023/11/07 03:05:04;;;;;;;5.47;3.10;;;;;;;;;;6213585;23;20171;-91
2023/11/07 03:08:10;;;;;;;5.22;2.85;;;;;;;;;;6213946;23;20224;-92
2023/11/07 03:11:17;;;;;;;6.68;3.30;;;;;;;;;;6213092;23;20619;-92
2023/11/07 03:14:22;;;;;;;14.15;3.25;;;;;;;;;;6214065;23;20190;-92
2023/11/07 03:17:27;;;;;;;8.63;3.10;;;;;;;;;;6213837;23;20218;-92
2023/11/07 03:20:33;;;;;;;6.50;2.97;;;;;;;;;;6214169;23;20174;-93
2023/11/07 03:23:39;;;;;;;7.50;2.80;;;;;;;;;;6214315;23;20597;-92
2023/11/07 03:26:45;;;;;;;5.88;2.95;;;;;;;;;;6215374;23;20496;-93
2023/11/07 03:29:51;;;;;;;6.82;2.63;;;;;;;;;;6214457;23;20202;-91
2023/11/07 03:32:57;;;;;;;8.13;2.83;;;;;;;;;;6210042;23;20171;-92
2023/11/07 03:36:03;;;;;;;5.28;2.72;;;;;;;;;;6209491;23;20255;-92
2023/11/07 03:39:09;;;;;;;7.75;2.72;;;;;;;;;;6213755;23;20219;-90
2023/11/07 03:42:16;;;;;;;7.20;2.90;;;;;;;;;;6213900;23;20167;-94
2023/11/07 03:45:22;;;;;;;9.25;2.80;;;;;;;;;;6214403;23;20171;-92
2023/11/07 03:48:31;;;;;;;5.78;3.33;;;;;;;;;;6214605;23;20179;-91
2023/11/07 03:51:36;;;;;;;7.65;3.40;;;;;;;;;;6212628;23;20155;-93
2023/11/07 03:54:41;;;;;;;7.07;3.55;;;;;;;;;;6212960;23;20279;-91
2023/11/07 03:57:49;;;;;;;7.90;2.90;;;;;;;;;;6212316;22;20175;-89
2023/11/07 04:00:58;;;;;;;13.80;3.43;;;;;;;;;;6212509;23;20195;-93
2023/11/07 04:04:03;;;;;;;10.23;3.08;;;;;;;;;;6211850;23;20493;-92
2023/11/07 04:07:08;;;;;;;6.10;3.30;;;;;;;;;;6212694;23;20175;-94
2023/11/07 04:10:14;;;;;;;7.40;3.33;;;;;;;;;;6212493;23;20175;-91
2023/11/07 04:13:21;;;;;;;8.68;3.88;;;;;;;;;;6213036;23;20187;-92
2023/11/07 04:16:29;;;;;;;8.45;3.33;;;;;;;;;;6213851;23;20211;-92
2023/11/07 04:19:34;;;;;;;8.43;3.40;;;;;;;;;;6212079;23;20171;-91
2023/11/07 04:22:40;;;;;;;7.17;3.40;;;;;;;;;;6208835;23;20183;-93
2023/11/07 04:25:47;;;;;;;4.78;3.28;;;;;;;;;;6210435;22;20175;-92
2023/11/07 04:28:55;;;;;;;6.23;3.23;;;;;;;;;;6214156;23;20179;-93
2023/11/07 04:32:01;;;;;;;7.20;3.30;;;;;;;;;;6212147;23;20210;-91
2023/11/07 04:35:06;;;;;;;8.75;3.60;;;;;;;;;;6211599;23;20657;-91
2023/11/07 04:38:11;;;;;;;7.60;3.60;;;;;;;;;;6212330;23;20179;-91
2023/11/07 04:41:16;;;;;;;6.57;3.37;;;;;;;;;;6210909;23;20602;-93
2023/11/07 04:44:24;;;;;;;7.30;3.50;;;;;;;;;;6211619;23;20252;-92
2023/11/07 04:47:30;;;;;;;8.57;3.50;;;;;;;;;;6210738;23;20176;-91
2023/11/07 04:50:36;;;;;;;6.00;3.60;;;;;;;;;;6211090;23;20224;-93
2023/11/07 04:53:44;;;;;;;8.27;3.63;;;;;;;;;;6210660;23;20171;-93
2023/11/07 04:56:49;;;;;;;7.43;3.70;;;;;;;;;;6211147;23;20282;-90
2023/11/07 05:03:41;;;;;;;7.53;3.40;;;;;;;;;;6207822;23;20163;-91
2023/11/07 05:06:48;;;;;;;6.47;3.43;;;;;;;;;;6208418;23;20171;-92
2023/11/07 05:09:55;;;;;;;6.10;3.20;;;;;;;;;;6212912;23;20173;-93
2023/11/07 05:13:06;;;;;;;7.30;3.53;;;;;;;;;;6214953;22;20194;-91
2023/11/07 05:16:11;;;;;;;9.10;3.63;;;;;;;;;;6212573;23;20195;-93
2023/11/07 05:19:18;;;;;;;5.20;2.97;;;;;;;;;;6213424;23;20175;-92
2023/11/07 05:22:24;;;;;;;7.53;3.23;;;;;;;;;;6210585;23;20554;-92
2023/11/07 05:25:30;;;;;;;7.23;3.40;;;;;;;;;;6210326;23;20211;-91
2023/11/07 05:28:36;;;;;;;8.70;3.27;;;;;;;;;;6210470;23;20193;-94
2023/11/07 05:31:42;;;;;;;6.73;3.33;;;;;;;;;;6210564;23;20187;-91
2023/11/07 05:34:48;;;;;;;8.87;3.57;;;;;;;;;;6211573;23;20155;-92
2023/11/07 05:37:54;;;;;;;7.50;3.37;;;;;;;;;;6211586;23;20618;-92
2023/11/07 05:40:59;;;;;;;9.83;3.63;;;;;;;;;;6215027;23;20171;-93
2023/11/07 05:44:04;;;;;;;14.57;4.07;;;;;;;;;;6211840;23;20174;-93
2023/11/07 05:47:10;;;;;;;10.13;3.73;;;;;;;;;;6211106;23;20254;-90
2023/11/07 05:53:51;;;;;;;7.37;4.00;;;;;;;;;;6211893;23;20603;-93
2023/11/07 05:56:56;;;;;;;7.03;4.43;;;;;;;;;;6212720;23;20198;-91
2023/11/07 06:00:01;;;;;;;8.43;4.10;;;;;;;;;;6212239;23;20266;-91
2023/11/07 06:03:08;;;;;;;9.33;4.83;;;;;;;;;;6214471;22;20164;-92
2023/11/07 06:06:13;;;;;;;15.30;5.57;;;;;;;;;;6214352;23;20171;-90
2023/11/07 06:09:21;;;;;;;12.40;6.00;;;;;;;;;;6210938;23;20171;-91
2023/11/07 06:12:26;;;;;;;11.47;5.67;;;;;;;;;;6211548;22;20497;-93
2023/11/07 06:15:32;;;;;;;8.73;4.60;;;;;;;;;;6213706;22;20182;-89
2023/11/07 06:18:44;;;;;;;12.87;4.90;;;;;;;;;;6215718;23;20211;-90
2023/11/07 06:21:50;;;;;;;11.23;5.40;;;;;;;;;;6214617;23;20223;-91
2023/11/07 06:24:56;;;;;;;9.27;4.77;;;;;;;;;;6214582;23;20151;-92
2023/11/07 06:28:03;;;;;;;9.43;4.77;;;;;;;;;;6214991;23;20257;-92
2023/11/07 06:31:09;;;;;;;25.57;5.80;;;;;;;;;;6215387;22;20170;-93
2023/11/07 06:34:15;;;;;;;14.27;5.77;;;;;;;;;;6215932;23;20230;-92
2023/11/07 06:37:21;;;;;;;18.90;5.63;;;;;;;;;;6217285;23;20203;-92
2023/11/07 14:59:31;;;;;;;6.18;2.10;;;;;;;;;;6112063;23;20250;-92
2023/11/07 15:02:36;;;;;;;4.93;1.88;;;;;;;;;;6078729;23;20302;-90
2023/11/07 15:05:41;;;;;;;7.03;2.40;;;;;;;;;;6094004;23;20178;-91
2023/11/07 15:08:47;;;;;;;5.03;2.15;;;;;;;;;;6095738;23;20214;-91
2023/11/07 15:11:52;;;;;;;8.23;2.58;;;;;;;;;;6114295;23;20178;-90
2023/11/07 15:14:59;;;;;;;3.30;1.90;;;;;;;;;;6097862;23;20236;-91
2023/11/07 15:18:05;;;;;;;3.35;1.83;;;;;;;;;;6096177;23;20223;-91
2023/11/07 15:21:11;;;;;;;4.03;2.28;;;;;;;;;;6097577;23;20181;-90
2023/11/07 15:24:17;;;;;;;19.50;9.30;;;;;;;;;;6094678;23;20153;-94
2023/11/07 15:27:23;;;;;;;4.53;2.50;;;;;;;;;;6095586;23;20175;-89
2023/11/07 15:30:34;;;;;;;3.60;1.92;;;;;;;;;;6097771;23;20165;-89
2023/11/07 15:33:44;;;;;;;2.95;1.40;;;;;;;;;;6099797;23;20182;-91
2023/11/07 15:36:52;;;;;;;11.68;1.92;;;;;;;;;;6099353;23;20280;-89
2023/11/07 15:39:57;;;;;;;7.35;2.10;;;;;;;;;;6098377;23;20178;-91
2023/11/07 15:43:04;;;;;;;2.65;1.52;;;;;;;;;;6099351;23;20173;-92
2023/11/07 15:46:16;;;;;;;7.40;2.50;;;;;;;;;;6099634;23;20194;-92
2023/11/07 15:49:22;;;;;;;19.33;5.50;;;;;;;;;;6098387;23;20247;-92
2023/11/07 15:52:27;;;;;;;12.90;4.22;;;;;;;;;;6095527;23;20202;-94
2023/11/07 15:55:33;;;;;;;7.22;3.00;;;;;;;;;;6093733;23;20185;-89
2023/11/07 15:58:39;;;;;;;9.10;2.95;;;;;;;;;;6115486;23;20157;-92
2023/11/07 16:01:46;;;;;;;5.75;2.17;;;;;;;;;;6114727;23;20271;-91
2023/11/07 16:04:52;;;;;;;4.93;2.03;;;;;;;;;;6114928;23;20249;-90
2023/11/07 16:07:58;;;;;;;4.70;1.92;;;;;;;;;;6098381;23;20177;-93
2023/11/07 16:11:04;;;;;;;8.77;2.15;;;;;;;;;;6115290;23;20177;-89
2023/11/07 16:14:12;;;;;;;5.40;1.60;;;;;;;;;;6114239;23;20218;-92
2023/11/07 16:17:20;;;;;;;3.15;1.50;;;;;;;;;;6112022;23;20198;-92
2023/11/07 16:20:25;;;;;;;3.60;1.40;;;;;;;;;;6114020;23;20170;-92
2023/11/07 16:23:32;;;;;;;19.90;9.52;;;;;;;;;;6098309;23;20173;-91
2023/11/07 16:26:39;;;;;;;4.75;1.38;;;;;;;;;;6115630;23;20198;-90
2023/11/07 16:29:53;;;;;;;1.88;1.30;;;;;;;;;;6117016;23;20161;-89
2023/11/07 16:33:01;;;;;;;20.10;9.40;;;;;;;;;;6111310;23;20175;-89
2023/11/07 16:36:08;;;;;;;7.05;4.15;;;;;;;;;;6094671;23;20182;-89
2023/11/07 16:39:13;;;;;;;3.75;1.40;;;;;;;;;;6108403;23;20177;-90
2023/11/07 16:42:18;;;;;;;5.75;1.60;;;;;;;;;;6111532;23;20177;-92
2023/11/07 16:45:24;;;;;;;4.00;1.38;;;;;;;;;;6110714;23;20218;-91
2023/11/07 16:48:44;;;;;;;7.18;1.85;;;;;;;;;;6097664;23;20222;-90
2023/11/07 16:55:25;;;;;;;2.53;1.27;;;;;;;;;;6112956;23;20173;-92
2023/11/07 16:58:31;;;;;;;3.17;1.50;;;;;;;;;;6112313;23;20601;-91
2023/11/07 17:01:36;;;;;;;2.88;1.77;;;;;;;;;;6112301;23;20226;-92
2023/11/07 17:04:42;;;;;;;5.57;1.75;;;;;;;;;;6111903;23;20173;-91
2023/11/07 17:07:49;;;;;;;5.63;2.13;;;;;;;;;;6113072;23;20195;-92
2023/11/07 17:11:01;;;;;;;3.63;1.67;;;;;;;;;;6113647;23;20179;-91
2023/11/07 17:14:12;;;;;;;3.08;2.00;;;;;;;;;;6114996;23;20295;-92
2023/11/07 17:17:18;;;;;;;4.47;1.70;;;;;;;;;;6098000;23;20401;-90
2023/11/07 17:20:23;;;;;;;7.45;1.73;;;;;;;;;;6115734;23;20186;-89
2023/11/07 17:23:30;;;;;;;5.75;3.30;;;;;;;;;;6117770;23;20174;-91
2023/11/07 17:26:38;;;;;;;6.45;2.00;;;;;;;;;;6115713;23;20200;-90
2023/11/07 17:29:49;;;;;;;4.05;2.03;;;;;;;;;;6097034;23;20243;-91
2023/11/07 17:32:57;;;;;;;5.13;2.35;;;;;;;;;;6116790;23;20165;-92
2023/11/07 17:36:07;;;;;;;5.22;2.35;;;;;;;;;;6115678;23;20246;-90
2023/11/07 17:39:20;;;;;;;8.82;3.10;;;;;;;;;;6100304;23;20246;-91
2023/11/07 17:42:44;;;;;;;7.95;2.45;;;;;;;;;;6099812;23;20177;-93
2023/11/07 17:46:01;;;;;;;4.70;2.20;;;;;;;;;;6116437;23;20169;-90
2023/11/07 17:52:29;;;;;;;6.15;2.58;;;;;;;;;;6100979;23;20185;-90
2023/11/07 17:55:39;;;;;;;6.28;2.97;;;;;;;;;;6117439;23;20174;-90
2023/11/07 17:58:48;;;;;;;8.15;4.30;;;;;;;;;;6102479;23;20170;-91
2023/11/07 18:08:47;;;;;;;10.82;3.45;;;;;;;;;;6114952;23;20178;-90
2023/11/07 18:11:53;;;;;;;27.98;11.55;;;;;;;;;;6098683;23;20186;-90
2023/11/07 18:14:59;;;;;;;6.53;2.90;;;;;;;;;;6114349;23;20174;-91
2023/11/07 18:18:10;;;;;;;17.67;7.53;;;;;;;;;;6114738;23;20209;-91
2023/11/07 18:21:16;;;;;;;9.90;4.07;;;;;;;;;;6099417;23;20622;-91
2023/11/07 18:24:27;;;;;;;20.25;15.55;;;;;;;;;;6115745;23;20222;-91
2023/11/07 18:27:33;;;;;;;10.95;6.28;;;;;;;;;;6116111;23;20223;-93
2023/11/07 18:30:43;;;;;;;7.90;4.63;;;;;;;;;;6100671;23;20165;-92
2023/11/07 18:33:52;;;;;;;12.57;5.18;;;;;;;;;;6118570;23;20531;-91
2023/11/07 18:37:02;;;;;;;5.93;3.50;;;;;;;;;;6117767;23;20197;-91
2023/11/07 18:40:12;;;;;;;4.80;2.95;;;;;;;;;;6100504;23;20207;-91
2023/11/07 18:43:20;;;;;;;6.97;2.90;;;;;;;;;;6100141;23;20174;-93
2023/11/07 18:46:28;;;;;;;4.55;2.70;;;;;;;;;;6117223;23;20158;-91
2023/11/07 18:49:35;;;;;;;10.55;5.93;;;;;;;;;;6117766;23;20170;-94
2023/11/07 18:56:05;;;;;;;10.88;4.63;;;;;;;;;;6099502;23;20170;-93
2023/11/07 18:59:11;;;;;;;10.98;6.10;;;;;;;;;;6143906;23;20168;-90
2023/11/07 19:02:19;;;;;;;16.05;8.80;;;;;;;;;;6124798;23;20313;-92
2023/11/07 19:05:27;;;;;;;13.43;5.50;;;;;;;;;;6125212;23;20174;-89
2023/11/07 19:08:32;;;;;;;10.88;5.13;;;;;;;;;;6124691;23;20173;-91
2023/11/07 19:11:39;;;;;;;11.27;4.88;;;;;;;;;;6128814;23;20177;-92
2023/11/07 19:14:44;;;;;;;7.43;4.13;;;;;;;;;;6132072;23;20181;-92
2023/11/07 19:17:54;;;;;;;13.27;4.55;;;;;;;;;;6129906;23;20189;-91
2023/11/07 19:21:02;;;;;;;8.93;3.72;;;;;;;;;;6129728;23;20165;-91
2023/11/07 19:24:09;;;;;;;6.95;3.13;;;;;;;;;;6126886;23;20673;-92
2023/11/07 19:27:16;;;;;;;27.92;13.02;;;;;;;;;;6127994;23;20182;-92
2023/11/07 19:30:23;;;;;;;12.25;6.80;;;;;;;;;;6126839;23;20684;-92
2023/11/07 19:33:28;;;;;;;8.80;4.78;;;;;;;;;;6124760;23;20181;-91
2023/11/07 19:36:38;;;;;;;9.98;4.65;;;;;;;;;;6126362;23;20206;-91
2023/11/07 19:39:47;;;;;;;8.20;3.80;;;;;;;;;;6125645;23;20176;-92
2023/11/07 19:42:53;;;;;;;12.52;5.35;;;;;;;;;;6124338;23;20198;-91
2023/11/07 19:45:58;;;;;;;12.45;4.78;;;;;;;;;;6125204;23;20176;-90
2023/11/07 19:49:05;;;;;;;39.20;17.90;;;;;;;;;;6126059;23;20174;-91
2023/11/07 19:52:13;;;;;;;27.48;13.18;;;;;;;;;;6142566;23;20173;-91
2023/11/07 19:55:18;;;;;;;13.65;6.93;;;;;;;;;;6142429;23;20172;-92
2023/11/07 19:58:25;;;;;;;10.93;5.90;;;;;;;;;;6138678;23;20212;-93
2023/11/07 20:01:33;;;;;;;15.93;7.28;;;;;;;;;;6141729;23;20161;-91
2023/11/07 20:04:39;;;;;;;10.40;5.80;;;;;;;;;;6141509;23;20169;-93
2023/11/07 20:07:46;;;;;;;13.25;6.45;;;;;;;;;;6140646;23;20237;-91
2023/11/07 20:10:52;;;;;;;29.27;12.25;;;;;;;;;;6142966;23;20169;-91
2023/11/07 20:14:00;;;;;;;9.05;4.63;;;;;;;;;;6143517;23;20251;-89
2023/11/07 20:17:06;;;;;;;9.05;4.72;;;;;;;;;;6141126;23;20169;-91
2023/11/07 20:20:12;;;;;;;8.73;5.00;;;;;;;;;;6139772;23;20213;-94
2023/11/07 20:23:22;;;;;;;10.07;5.20;;;;;;;;;;6143459;23;20278;-91
2023/11/07 20:26:28;;;;;;;9.23;4.82;;;;;;;;;;6145598;23;20194;-91
2023/11/07 20:29:33;;;;;;;22.73;9.50;;;;;;;;;;6144217;23;20149;-93
2023/11/07 20:32:41;;;;;;;123.10;36.60;;;;;;;;;;6145004;23;20194;-91
2023/11/07 20:35:46;;;;;;;41.22;16.92;;;;;;;;;;6146385;23;20180;-89
2023/11/07 20:38:54;;;;;;;12.82;5.60;;;;;;;;;;6144561;23;20197;-90
2023/11/07 20:42:00;;;;;;;12.35;5.80;;;;;;;;;;6145931;23;20186;-91
2023/11/07 20:45:08;;;;;;;8.90;5.00;;;;;;;;;;6144578;23;20169;-91
2023/11/07 20:48:14;;;;;;;9.85;5.10;;;;;;;;;;6145878;23;20222;-91
2023/11/07 20:51:20;;;;;;;12.63;6.32;;;;;;;;;;6145775;23;20177;-89
2023/11/07 20:54:28;;;;;;;10.77;5.60;;;;;;;;;;6145470;23;20213;-91
2023/11/07 20:57:34;;;;;;;11.35;4.85;;;;;;;;;;6145902;23;20261;-90
2023/11/07 21:00:40;;;;;;;8.77;4.13;;;;;;;;;;6146387;23;20169;-91
2023/11/07 21:03:46;;;;;;;8.75;3.67;;;;;;;;;;6144575;23;20185;-94
2023/11/07 21:06:52;;;;;;;9.43;3.85;;;;;;;;;;6145028;23;20214;-93
2023/11/07 21:09:59;;;;;;;8.32;3.30;;;;;;;;;;6142613;23;20172;-92
2023/11/07 21:13:04;;;;;;;9.98;3.85;;;;;;;;;;6139881;23;20225;-93
2023/11/07 21:16:10;;;;;;;7.45;3.30;;;;;;;;;;6144699;23;20173;-90
2023/11/07 21:19:15;;;;;;;6.93;3.63;;;;;;;;;;6139597;23;20233;-92
2023/11/07 21:22:20;;;;;;;7.75;3.50;;;;;;;;;;6140667;23;20168;-93
2023/11/07 21:25:29;;;;;;;8.32;3.17;;;;;;;;;;6140437;23;20169;-91
2023/11/07 21:28:35;;;;;;;5.45;3.03;;;;;;;;;;6140620;23;20168;-91
2023/11/07 21:31:41;;;;;;;11.45;4.18;;;;;;;;;;6141817;23;20213;-93
2023/11/07 21:34:46;;;;;;;11.90;4.03;;;;;;;;;;6142575;23;20173;-91
2023/11/07 21:37:51;;;;;;;8.68;3.50;;;;;;;;;;6142725;23;20197;-90
2023/11/07 21:41:00;;;;;;;10.52;4.38;;;;;;;;;;6144676;23;20177;-91
2023/11/07 21:44:06;;;;;;;7.95;3.70;;;;;;;;;;6159425;23;20189;-91
2023/11/07 21:47:11;;;;;;;12.68;4.18;;;;;;;;;;6139886;23;20625;-91
2023/11/07 21:50:17;;;;;;;8.13;3.28;;;;;;;;;;6142411;23;20209;-90
2023/11/07 21:53:24;;;;;;;6.30;3.05;;;;;;;;;;6141872;23;20165;-91
2023/11/07 21:56:31;;;;;;;8.25;3.67;;;;;;;;;;6142011;23;20237;-90
2023/11/07 21:59:36;;;;;;;11.20;3.58;;;;;;;;;;6123148;23;20236;-90
2023/11/07 22:02:43;;;;;;;10.68;3.50;;;;;;;;;;6126376;23;20177;-91
2023/11/07 22:05:48;;;;;;;7.30;3.53;;;;;;;;;;6123382;23;20181;-90
2023/11/07 22:08:53;;;;;;;6.43;3.22;;;;;;;;;;6124725;23;20213;-90
2023/11/07 22:12:01;;;;;;;8.20;3.00;;;;;;;;;;6124372;23;20165;-90
2023/11/07 22:15:12;;;;;;;6.85;3.03;;;;;;;;;;6125611;23;20185;-91
2023/11/07 22:18:18;;;;;;;3.97;2.63;;;;;;;;;;6125576;23;20197;-89
2023/11/07 22:25:05;;;;;;;4.47;2.75;;;;;;;;;;6122035;23;20177;-91
2023/11/07 22:28:12;;;;;;;5.35;2.78;;;;;;;;;;6123678;23;20164;-92
2023/11/07 22:31:18;;;;;;;5.30;2.90;;;;;;;;;;6123859;23;20205;-90
2023/11/07 22:34:23;;;;;;;7.13;3.40;;;;;;;;;;6123161;23;20580;-93
2023/11/07 22:37:28;;;;;;;6.07;3.20;;;;;;;;;;6122989;23;20201;-90
2023/11/07 22:40:33;;;;;;;10.25;3.72;;;;;;;;;;6124183;23;20182;-92
2023/11/07 22:43:40;;;;;;;10.13;4.30;;;;;;;;;;6122486;23;20685;-93
2023/11/07 22:46:47;;;;;;;11.50;4.00;;;;;;;;;;6124663;23;20173;-93
2023/11/07 22:49:52;;;;;;;5.25;2.53;;;;;;;;;;6125309;23;20176;-90
2023/11/07 22:52:57;;;;;;;6.72;3.83;;;;;;;;;;6123561;23;20173;-91
2023/11/07 22:56:03;;;;;;;8.65;3.50;;;;;;;;;;6126182;23;20190;-90
2023/11/07 22:59:11;;;;;;;9.68;3.90;;;;;;;;;;6097891;23;20265;-93
2023/11/07 23:02:16;;;;;;;10.95;4.97;;;;;;;;;;6127920;23;20178;-90
2023/11/07 23:05:22;;;;;;;9.88;3.47;;;;;;;;;;6127518;23;20193;-90
2023/11/07 23:08:28;;;;;;;9.95;3.90;;;;;;;;;;6126865;23;20174;-90
2023/11/07 23:11:33;;;;;;;8.98;3.67;;;;;;;;;;6129144;23;20170;-90
2023/11/07 23:14:41;;;;;;;10.80;4.00;;;;;;;;;;6127367;23;20186;-91
2023/11/07 23:17:47;;;;;;;11.65;4.75;;;;;;;;;;6093609;23;20182;-89
2023/11/07 23:20:52;;;;;;;8.95;3.63;;;;;;;;;;6127825;23;20218;-90
2023/11/07 23:23:57;;;;;;;3.17;2.22;;;;;;;;;;6125699;23;20613;-89
2023/11/07 23:27:02;;;;;;;4.10;2.40;;;;;;;;;;6126764;23;20496;-89
2023/11/07 23:30:09;;;;;;;7.15;3.10;;;;;;;;;;6092550;23;20179;-91
2023/11/07 23:33:15;;;;;;;4.53;2.65;;;;;;;;;;6124996;23;20170;-92
2023/11/07 23:36:20;;;;;;;3.83;1.92;;;;;;;;;;6126733;23;20174;-92
2023/11/07 23:39:26;;;;;;;4.45;1.88;;;;;;;;;;6125974;23;20201;-89
2023/11/07 23:42:31;;;;;;;3.95;1.50;;;;;;;;;;6126796;23;20214;-91
2023/11/07 23:45:38;;;;;;;4.00;2.00;;;;;;;;;;6126081;23;20274;-91
2023/11/07 23:48:42;;;;;;;2.80;1.70;;;;;;;;;;6126215;23;20333;-93
2023/11/07 23:51:48;;;;;;;1.73;1.35;;;;;;;;;;6125314;23;20176;-92
2023/11/07 23:54:53;;;;;;;5.05;2.15;;;;;;;;;;6125489;23;20240;-90
2023/11/07 23:57:59;;;;;;;4.03;2.13;;;;;;;;;;6158992;23;20240;-89
